Time;durP1;ratioP1;P1;durP2;ratioP2;P2;SDS_P1;SDS_P2;PMS_P1;PMS_P2;Temp;Humidity;BMP_temperature;BMP_pressure;BME280_temperature;BME280_humidity;BME280_pressure;Samples;Min_cycle;Max_cycle;Signal;HPM_P1;HPM_P2
2021/12/14 00:01:42;;;;;;;6.63;4.93;;;7.80;99.90;;;;;;4973241;28;20073;-80
2021/12/14 00:04:09;;;;;;;5.50;4.15;;;7.80;99.90;;;;;;4983431;28;20080;-80
2021/12/14 00:06:35;;;;;;;8.18;4.38;;;7.80;99.90;;;;;;4990182;28;20034;-80
2021/12/14 00:09:02;;;;;;;5.93;4.00;;;7.80;99.90;;;;;;4968494;28;20571;-80
2021/12/14 00:12:07;;;;;;;6.35;3.60;;;7.70;99.90;;;;;;4990637;28;20034;-80
2021/12/14 00:16:48;;;;;;;7.43;4.10;;;7.80;99.90;;;;;;5003972;28;20125;-80
2021/12/14 00:19:15;;;;;;;6.45;4.13;;;7.70;99.90;;;;;;5006506;28;20034;-80
2021/12/14 00:21:43;;;;;;;6.65;3.35;;;7.70;99.90;;;;;;4990928;28;20402;-80
2021/12/14 00:24:11;;;;;;;5.40;4.10;;;7.80;99.90;;;;;;5005126;28;20061;-80
2021/12/14 00:26:51;;;;;;;4.95;3.45;;;7.80;99.90;;;;;;4971027;28;20038;-80
2021/12/14 00:29:19;;;;;;;6.90;4.05;;;7.80;99.90;;;;;;5003854;28;20520;-80
2021/12/14 00:31:45;;;;;;;6.80;3.45;;;7.80;99.90;;;;;;4990120;28;20039;-79
2021/12/14 00:34:10;;;;;;;5.25;3.50;;;7.80;99.90;;;;;;4971083;28;20037;-80
2021/12/14 00:36:36;;;;;;;6.10;1.80;;;7.80;99.90;;;;;;4975842;28;20030;-80
2021/12/14 00:39:05;;;;;;;5.85;4.18;;;7.80;99.90;;;;;;4990047;28;20034;-80
2021/12/14 00:41:34;;;;;;;4.70;3.40;;;7.80;99.90;;;;;;4992838;28;20055;-80
2021/12/14 00:43:59;;;;;;;5.18;4.00;;;7.80;99.90;;;;;;5005514;28;20073;-80
2021/12/14 00:46:25;;;;;;;6.95;3.47;;;7.80;99.90;;;;;;4994491;28;20053;-80
2021/12/14 00:48:50;;;;;;;6.57;3.90;;;7.80;99.90;;;;;;4969454;28;20127;-80
2021/12/14 00:51:18;;;;;;;5.00;3.30;;;7.80;99.90;;;;;;4977910;28;20036;-80
2021/12/14 00:53:44;;;;;;;7.55;3.72;;;7.80;99.90;;;;;;4987568;28;20041;-80
2021/12/14 00:56:10;;;;;;;7.47;3.70;;;7.80;99.90;;;;;;5004118;28;20034;-80
2021/12/14 00:58:36;;;;;;;6.50;4.10;;;7.80;99.90;;;;;;4978218;28;20486;-80
2021/12/14 01:01:08;;;;;;;5.70;3.40;;;7.70;99.90;;;;;;5007760;28;20111;-80
2021/12/14 01:03:34;;;;;;;6.35;3.58;;;7.80;99.90;;;;;;4987581;28;20045;-80
2021/12/14 01:06:00;;;;;;;5.82;3.45;;;7.80;99.90;;;;;;4977062;28;20176;-80
2021/12/14 01:08:28;;;;;;;4.25;2.63;;;7.80;99.90;;;;;;4996276;28;20124;-80
2021/12/14 01:10:59;;;;;;;7.55;4.38;;;7.70;99.90;;;;;;4975450;28;20048;-80
2021/12/14 01:13:26;;;;;;;10.55;3.50;;;7.80;99.90;;;;;;5004932;28;20033;-80
2021/12/14 01:16:13;;;;;;;6.28;3.67;;;7.70;99.90;;;;;;5010578;28;20034;-80
2021/12/14 01:22:14;;;;;;;5.90;3.97;;;7.70;99.90;;;;;;4984605;28;20045;-81
2021/12/14 01:27:03;;;;;;;5.10;3.53;;;7.70;99.90;;;;;;4966712;28;20048;-81
2021/12/14 01:29:30;;;;;;;5.57;3.17;;;7.70;99.90;;;;;;4980055;28;20486;-80
2021/12/14 01:32:00;;;;;;;7.93;2.20;;;7.70;99.90;;;;;;4961718;28;20029;-81
2021/12/14 01:34:25;;;;;;;6.25;4.00;;;7.70;99.90;;;;;;4990011;28;20071;-81
2021/12/14 01:36:56;;;;;;;8.80;4.28;;;7.80;99.90;;;;;;4990654;28;20045;-81
2021/12/14 01:42:04;;;;;;;6.28;4.15;;;7.70;99.90;;;;;;4996830;28;20079;-81
2021/12/14 01:44:33;;;;;;;4.82;3.15;;;7.70;99.90;;;;;;4993444;28;20029;-81
2021/12/14 01:47:02;;;;;;;5.47;2.95;;;7.70;99.90;;;;;;5009279;28;20475;-81
2021/12/14 01:49:28;;;;;;;7.68;4.10;;;7.70;99.90;;;;;;4992664;28;20037;-81
2021/12/14 01:51:55;;;;;;;8.48;4.32;;;7.70;99.90;;;;;;4971873;28;20063;-80
2021/12/14 01:54:27;;;;;;;4.78;3.00;;;7.60;99.90;;;;;;5006112;28;20091;-81
2021/12/14 01:56:53;;;;;;;6.47;4.05;;;7.60;99.90;;;;;;5008031;28;20061;-81
2021/12/14 01:59:23;;;;;;;6.47;4.15;;;7.70;99.90;;;;;;4974584;28;20033;-80
2021/12/14 02:02:07;;;;;;;8.75;3.80;;;7.70;99.90;;;;;;4979809;28;20527;-81
2021/12/14 02:04:33;;;;;;;6.10;3.03;;;7.70;99.90;;;;;;4977321;28;20035;-81
2021/12/14 02:07:00;;;;;;;4.50;3.65;;;7.70;99.90;;;;;;4985806;28;20029;-81
2021/12/14 02:09:27;;;;;;;6.13;3.70;;;7.70;99.90;;;;;;4978409;28;20507;-81
2021/12/14 02:11:54;;;;;;;6.70;3.45;;;7.70;99.90;;;;;;4989231;28;20038;-81
2021/12/14 02:14:20;;;;;;;7.05;4.78;;;7.70;99.90;;;;;;4988142;28;20030;-81
2021/12/14 02:16:57;;;;;;;5.28;3.42;;;7.70;99.90;;;;;;4975969;28;20042;-81
2021/12/14 02:19:22;;;;;;;5.38;3.80;;;7.70;99.90;;;;;;4991146;28;20037;-81
2021/12/14 02:21:49;;;;;;;5.00;3.28;;;7.60;99.90;;;;;;4971113;28;20037;-81
2021/12/14 02:24:19;;;;;;;5.97;3.92;;;7.70;99.90;;;;;;4971062;28;20088;-81
2021/12/14 02:26:45;;;;;;;4.95;3.90;;;7.70;99.90;;;;;;4990139;28;20025;-81
2021/12/14 02:29:19;;;;;;;5.35;3.95;;;7.60;99.90;;;;;;4977546;28;20049;-81
2021/12/14 02:31:45;;;;;;;5.45;4.10;;;7.60;99.90;;;;;;4971674;28;20463;-81
2021/12/14 02:34:10;;;;;;;6.57;3.72;;;7.60;99.90;;;;;;4972053;28;20109;-81
2021/12/14 02:36:44;;;;;;;7.25;4.82;;;7.60;99.90;;;;;;4974130;28;20029;-81
2021/12/14 02:39:24;;;;;;;9.20;3.95;;;7.60;99.90;;;;;;5006363;28;20445;-81
2021/12/14 02:41:52;;;;;;;6.30;4.05;;;7.60;99.90;;;;;;4976947;28;20717;-81
2021/12/14 02:44:17;;;;;;;4.55;1.98;;;7.60;99.90;;;;;;4989699;28;20042;-81
2021/12/14 02:46:46;;;;;;;9.95;4.82;;;7.60;99.90;;;;;;4992555;28;20516;-81
2021/12/14 02:49:14;;;;;;;9.13;4.80;;;7.60;99.90;;;;;;4965892;28;20032;-81
2021/12/14 02:51:45;;;;;;;7.35;4.82;;;7.60;99.90;;;;;;4981201;28;20044;-81
2021/12/14 02:54:13;;;;;;;5.25;2.70;;;7.60;99.90;;;;;;4968403;28;20640;-81
2021/12/14 02:56:40;;;;;;;5.07;3.80;;;7.60;99.90;;;;;;5005365;28;20140;-81
2021/12/14 02:59:12;;;;;;;4.28;2.85;;;7.50;99.90;;;;;;4982898;28;20030;-81
2021/12/14 03:01:38;;;;;;;9.32;5.03;;;7.60;99.90;;;;;;4984170;28;20034;-81
2021/12/14 03:04:05;;;;;;;4.25;2.00;;;7.60;99.90;;;;;;5006196;28;20052;-80
2021/12/14 03:06:33;;;;;;;9.48;5.72;;;7.50;99.90;;;;;;4976758;28;20037;-81
2021/12/14 03:09:16;;;;;;;7.22;5.00;;;7.50;99.90;;;;;;4972896;28;20111;-81
2021/12/14 03:11:43;;;;;;;11.30;6.45;;;7.50;99.90;;;;;;4979914;28;20068;-81
2021/12/14 03:14:09;;;;;;;8.68;4.30;;;7.40;99.90;;;;;;4972879;28;20034;-81
2021/12/14 03:16:35;;;;;;;4.45;2.60;;;7.50;99.90;;;;;;4992875;28;20037;-81
2021/12/14 03:19:01;;;;;;;7.63;4.30;;;7.50;99.90;;;;;;4985934;28;20143;-81
2021/12/14 03:21:32;;;;;;;8.45;5.47;;;7.50;99.90;;;;;;4993393;28;20029;-81
2021/12/14 03:24:03;;;;;;;6.25;4.05;;;7.50;99.90;;;;;;4988196;28;20162;-81
2021/12/14 03:26:29;;;;;;;6.25;4.22;;;7.50;99.90;;;;;;4974432;28;20029;-81
2021/12/14 03:28:57;;;;;;;8.88;4.78;;;7.50;99.90;;;;;;4975502;28;20033;-81
2021/12/14 03:31:29;;;;;;;10.32;4.35;;;7.50;99.90;;;;;;5005816;28;20040;-81
2021/12/14 03:34:25;;;;;;;6.78;5.03;;;7.50;99.90;;;;;;4988854;28;20045;-82
2021/12/14 03:36:56;;;;;;;10.10;4.70;;;7.50;99.90;;;;;;4986090;28;20030;-81
2021/12/14 03:39:33;;;;;;;8.73;5.25;;;7.50;99.90;;;;;;5004912;28;20052;-81
2021/12/14 03:42:22;;;;;;;6.75;4.75;;;7.50;99.90;;;;;;4988667;28;20037;-81
2021/12/14 03:44:55;;;;;;;9.43;4.90;;;7.50;99.90;;;;;;4981264;28;20738;-81
2021/12/14 03:47:35;;;;;;;9.18;5.55;;;7.40;99.90;;;;;;4975449;28;20057;-81
2021/12/14 03:50:16;;;;;;;7.55;4.85;;;7.40;99.90;;;;;;4994320;28;20443;-81
2021/12/14 03:52:41;;;;;;;8.32;5.60;;;7.40;99.90;;;;;;4985477;28;20034;-81
2021/12/14 03:55:16;;;;;;;6.78;4.63;;;7.40;99.90;;;;;;4991199;28;20029;-80
2021/12/14 03:57:42;;;;;;;8.63;5.55;;;7.30;99.90;;;;;;4970567;28;20033;-81
2021/12/14 04:00:16;;;;;;;9.57;5.05;;;7.40;99.90;;;;;;5003734;28;20034;-81
2021/12/14 04:02:41;;;;;;;11.45;5.43;;;7.30;99.90;;;;;;4987563;28;20690;-81
2021/12/14 04:05:11;;;;;;;9.52;5.35;;;7.40;99.90;;;;;;4990862;28;20037;-81
2021/12/14 04:07:37;;;;;;;8.18;5.28;;;7.40;99.90;;;;;;4973349;28;20029;-81
2021/12/14 04:10:14;;;;;;;9.50;5.57;;;7.40;99.90;;;;;;5006099;28;20122;-81
2021/12/14 04:12:39;;;;;;;9.70;5.90;;;7.40;99.90;;;;;;4991308;28;20026;-81
2021/12/14 04:15:05;;;;;;;13.73;6.43;;;7.40;99.90;;;;;;4993904;28;20385;-81
2021/12/14 04:17:31;;;;;;;8.43;5.07;;;7.40;99.90;;;;;;4991920;28;20026;-81
2021/12/14 04:19:57;;;;;;;13.60;7.25;;;7.40;99.90;;;;;;4990472;28;20394;-81
2021/12/14 04:22:25;;;;;;;11.60;6.47;;;7.30;99.90;;;;;;4993505;28;20037;-81
2021/12/14 04:24:56;;;;;;;15.13;7.40;;;7.30;99.90;;;;;;4986284;28;20037;-81
2021/12/14 04:27:23;;;;;;;12.73;6.38;;;7.40;99.90;;;;;;5009090;28;20036;-81
2021/12/14 04:29:49;;;;;;;11.32;6.13;;;7.40;99.90;;;;;;4976580;28;20033;-81
2021/12/14 04:32:15;;;;;;;17.17;8.45;;;7.40;99.90;;;;;;4988689;28;20044;-81
2021/12/14 04:34:41;;;;;;;14.32;7.88;;;7.40;99.90;;;;;;4980420;28;20053;-81
2021/12/14 04:37:07;;;;;;;12.10;7.25;;;7.30;99.90;;;;;;4976496;28;20049;-81
2021/12/14 04:39:43;;;;;;;16.10;7.25;;;7.30;99.90;;;;;;4979366;28;20425;-81
2021/12/14 04:53:23;;;;;;;12.40;6.57;;;7.20;99.90;;;;;;4998822;28;20773;-81
2021/12/14 04:55:50;;;;;;;13.40;7.47;;;7.20;99.90;;;;;;5008288;28;20099;-81
2021/12/14 04:58:16;;;;;;;10.85;6.05;;;7.20;99.90;;;;;;4993151;28;20026;-81
2021/12/14 05:00:44;;;;;;;15.52;7.20;;;7.20;99.90;;;;;;4966823;28;20508;-81
2021/12/14 05:03:22;;;;;;;20.35;9.70;;;7.20;99.90;;;;;;4976876;28;20474;-81
2021/12/14 05:05:51;;;;;;;18.95;8.80;;;7.20;99.90;;;;;;5007615;28;20041;-81
2021/12/14 05:10:55;;;;;;;13.27;7.72;;;7.20;99.90;;;;;;4989370;28;20025;-81
2021/12/14 05:13:32;;;;;;;18.15;8.70;;;7.10;99.90;;;;;;4978068;28;20034;-81
2021/12/14 05:15:58;;;;;;;23.20;11.75;;;7.20;99.90;;;;;;5007014;28;20029;-81
2021/12/14 05:18:23;;;;;;;15.10;6.85;;;7.20;99.90;;;;;;4966323;28;20692;-81
2021/12/14 05:20:49;;;;;;;17.20;8.35;;;7.20;99.90;;;;;;4975508;28;20489;-81
2021/12/14 05:23:26;;;;;;;21.20;11.35;;;7.10;99.90;;;;;;5010566;28;20485;-81
2021/12/14 05:25:51;;;;;;;18.75;8.70;;;7.20;99.90;;;;;;4986024;28;20513;-81
2021/12/14 05:28:19;;;;;;;21.92;8.05;;;7.10;99.90;;;;;;4992101;28;20025;-81
2021/12/14 05:30:47;;;;;;;21.52;10.73;;;7.20;99.90;;;;;;5007062;28;20036;-81
2021/12/14 05:33:28;;;;;;;16.50;9.40;;;7.10;99.90;;;;;;4989675;28;20067;-81
2021/12/14 05:35:56;;;;;;;15.90;7.68;;;7.10;99.90;;;;;;4971681;28;20517;-81
2021/12/14 05:38:29;;;;;;;23.95;12.50;;;7.10;99.90;;;;;;4974290;28;20113;-81
2021/12/14 05:41:08;;;;;;;22.75;11.57;;;7.10;99.90;;;;;;4980478;28;20032;-81
2021/12/14 05:43:36;;;;;;;16.08;7.40;;;7.10;99.90;;;;;;4992234;28;20125;-81
2021/12/14 05:46:03;;;;;;;21.40;11.40;;;7.10;99.90;;;;;;4990031;28;20034;-81
2021/12/14 05:48:31;;;;;;;24.38;11.23;;;7.10;99.90;;;;;;4986341;28;20054;-81
2021/12/14 05:51:05;;;;;;;18.98;5.53;;;7.10;99.90;;;;;;4985229;28;20033;-81
2021/12/14 05:53:32;;;;;;;18.38;9.77;;;7.10;99.90;;;;;;4974849;28;20034;-81
2021/12/14 05:56:01;;;;;;;23.70;10.95;;;7.10;99.90;;;;;;4977320;28;20033;-81
2021/12/14 05:58:26;;;;;;;20.88;9.73;;;7.10;99.90;;;;;;5002284;28;20021;-81
2021/12/14 06:00:58;;;;;;;19.02;10.18;;;7.10;99.90;;;;;;4976296;28;20485;-81
2021/12/14 06:03:27;;;;;;;26.60;12.60;;;7.10;99.90;;;;;;4979260;28;20085;-81
2021/12/14 06:05:53;;;;;;;24.77;13.23;;;7.10;99.90;;;;;;4977332;28;20045;-81
2021/12/14 06:08:24;;;;;;;20.58;11.05;;;7.10;99.90;;;;;;4989802;28;20034;-81
2021/12/14 06:10:50;;;;;;;24.45;11.43;;;7.10;99.90;;;;;;4991398;28;20049;-81
2021/12/14 06:13:19;;;;;;;20.65;10.82;;;7.10;99.90;;;;;;4986315;28;20026;-80
2021/12/14 06:15:45;;;;;;;20.08;9.90;;;7.10;99.90;;;;;;4993052;28;20040;-81
2021/12/14 06:18:11;;;;;;;25.80;12.82;;;7.10;99.90;;;;;;4989692;28;20117;-81
2021/12/14 06:20:42;;;;;;;20.65;12.13;;;7.10;99.90;;;;;;4991222;28;20101;-81
2021/12/14 06:23:08;;;;;;;25.70;11.13;;;7.10;99.90;;;;;;4987896;28;20405;-81
2021/12/14 06:25:34;;;;;;;19.55;10.13;;;7.00;99.90;;;;;;4977032;28;20035;-81
2021/12/14 06:28:01;;;;;;;19.38;10.20;;;7.00;99.90;;;;;;4974016;28;20109;-81
2021/12/14 06:30:30;;;;;;;21.15;11.25;;;7.00;99.90;;;;;;4992748;28;20509;-81
2021/12/14 06:33:07;;;;;;;24.17;11.00;;;7.00;99.90;;;;;;4974610;28;20041;-81
2021/12/14 06:35:41;;;;;;;21.02;9.85;;;7.00;99.90;;;;;;4989199;28;20068;-81
2021/12/14 06:38:29;;;;;;;18.15;9.45;;;7.00;99.90;;;;;;4984749;28;20041;-81
2021/12/14 06:41:08;;;;;;;19.58;10.77;;;7.00;99.90;;;;;;4991552;28;20045;-81
2021/12/14 06:43:53;;;;;;;21.05;10.40;;;7.00;99.90;;;;;;4986299;28;20473;-81
2021/12/14 06:46:23;;;;;;;22.02;10.85;;;7.00;99.90;;;;;;5004738;28;20060;-81
2021/12/14 06:49:06;;;;;;;19.48;9.73;;;7.10;99.90;;;;;;4976347;28;20390;-84
2021/12/14 06:51:46;;;;;;;22.77;12.68;;;7.10;99.90;;;;;;4979458;28;20524;-84
2021/12/14 06:54:15;;;;;;;23.00;12.00;;;7.00;99.90;;;;;;4987099;28;20036;-84
2021/12/14 06:56:41;;;;;;;22.33;11.88;;;7.00;99.90;;;;;;4975765;28;20068;-81
2021/12/14 06:59:09;;;;;;;27.45;14.35;;;7.00;99.90;;;;;;4987964;28;20470;-80
2021/12/14 07:01:39;;;;;;;24.23;11.88;;;7.00;99.90;;;;;;4983911;28;20134;-81
2021/12/14 07:04:07;;;;;;;24.15;11.95;;;7.00;99.90;;;;;;4972242;28;20037;-80
2021/12/14 07:06:43;;;;;;;21.67;12.23;;;7.00;99.90;;;;;;4982883;28;20040;-81
2021/12/14 07:09:13;;;;;;;22.30;11.98;;;7.00;99.90;;;;;;5006226;28;20036;-82
2021/12/14 07:11:40;;;;;;;20.52;10.88;;;7.00;99.90;;;;;;5006143;28;20445;-81
2021/12/14 07:14:26;;;;;;;11.73;5.57;;;7.00;99.90;;;;;;4972478;28;20029;-81
2021/12/14 07:16:51;;;;;;;21.88;12.25;;;7.00;99.90;;;;;;4987433;28;20469;-80
2021/12/14 07:19:17;;;;;;;23.58;13.30;;;7.00;99.90;;;;;;4985577;28;20029;-81
2021/12/14 07:21:45;;;;;;;20.70;10.80;;;7.10;99.90;;;;;;5006750;28;20041;-81
2021/12/14 07:24:22;;;;;;;6.68;2.75;;;7.00;99.90;;;;;;4990482;28;20120;-81
2021/12/14 07:27:11;;;;;;;18.77;10.05;;;7.00;99.90;;;;;;4998407;28;20038;-82
2021/12/14 07:29:36;;;;;;;20.65;12.57;;;7.00;99.90;;;;;;4988538;28;20033;-81
2021/12/14 07:32:02;;;;;;;19.73;10.80;;;7.00;99.90;;;;;;4983209;28;20124;-81
2021/12/14 07:34:28;;;;;;;17.90;11.20;;;7.00;99.90;;;;;;4990240;28;20049;-81
2021/12/14 07:36:54;;;;;;;18.27;9.27;;;7.00;99.90;;;;;;4989157;28;20120;-81
2021/12/14 07:39:20;;;;;;;21.73;11.20;;;7.00;99.90;;;;;;4990370;28;20072;-81
2021/12/14 07:41:52;;;;;;;24.30;12.90;;;7.00;99.90;;;;;;4975133;28;20132;-83
2021/12/14 07:44:25;;;;;;;24.10;11.90;;;7.00;99.90;;;;;;4988415;28;20025;-81
2021/12/14 07:47:14;;;;;;;21.98;12.45;;;7.00;99.90;;;;;;5003543;28;20057;-81
2021/12/14 07:49:40;;;;;;;24.48;14.00;;;7.10;99.90;;;;;;4987854;28;20439;-81
2021/12/14 07:52:08;;;;;;;23.40;12.95;;;7.00;99.90;;;;;;5008264;28;20040;-81
2021/12/14 07:54:46;;;;;;;22.40;12.25;;;7.00;99.90;;;;;;5027992;28;20044;-81
2021/12/14 07:57:36;;;;;;;30.70;15.88;;;7.00;99.90;;;;;;5005455;28;20034;-81
2021/12/14 08:00:21;;;;;;;33.97;18.65;;;7.00;99.90;;;;;;4998987;28;20060;-81
2021/12/14 08:02:50;;;;;;;33.65;17.13;;;7.00;99.90;;;;;;4979725;28;20054;-82
2021/12/14 08:05:26;;;;;;;22.33;12.02;;;7.00;99.90;;;;;;4994932;28;20037;-81
